createdAt,value
2023-04-09T00:00:20.646Z,6.300000191
2023-04-09T00:01:21.122Z,6.300000191
2023-04-09T00:02:21.648Z,7.099999905
2023-04-09T00:03:22.103Z,6.400000095
2023-04-09T00:04:22.584Z,7
2023-04-09T00:05:23.022Z,6.800000191
2023-04-09T00:06:23.565Z,6.800000191
2023-04-09T00:07:24.058Z,6.199999809
2023-04-09T00:08:24.512Z,6.5
2023-04-09T00:09:25.095Z,6.5
2023-04-09T00:10:25.618Z,6.699999809
2023-04-09T00:11:26.192Z,6.699999809
2023-04-09T00:12:26.682Z,6.900000095
2023-04-09T00:13:37.947Z,6.900000095
2023-04-09T00:14:27.602Z,6.699999809
2023-04-09T00:15:31.576Z,6.400000095
2023-04-09T00:16:28.705Z,6.199999809
2023-04-09T00:17:29.358Z,6.099999905
2023-04-09T00:18:29.812Z,7.5
2023-04-09T00:19:30.325Z,6.900000095
2023-04-09T00:20:30.965Z,7.199999809
2023-04-09T00:21:31.460Z,6.5
2023-04-09T00:22:31.969Z,6.800000191
2023-04-09T00:23:32.596Z,6.300000191
2023-04-09T00:24:33.049Z,7.099999905
2023-04-09T00:25:33.793Z,7
2023-04-09T00:26:34.241Z,7
2023-04-09T00:27:34.729Z,7.699999809
2023-04-09T00:28:35.201Z,7.199999809
2023-04-09T00:29:35.685Z,7.300000191
2023-04-09T00:30:36.143Z,7.300000191
2023-04-09T00:31:36.762Z,7.199999809
2023-04-09T00:32:37.313Z,8
2023-04-09T00:33:37.766Z,8.100000381
2023-04-09T00:34:38.242Z,7.800000191
2023-04-09T00:35:38.883Z,7.599999905
2023-04-09T00:36:39.246Z,7.5
2023-04-09T00:38:11.242Z,7.5
2023-04-09T00:39:11.810Z,8.100000381
2023-04-09T00:40:12.308Z,8.800000191
2023-04-09T00:41:12.875Z,7.800000191
2023-04-09T00:42:13.315Z,8
2023-04-09T00:43:13.842Z,6.900000095
2023-04-09T00:44:14.301Z,7.5
2023-04-09T00:45:14.813Z,7.800000191
2023-04-09T00:46:15.465Z,7.599999905
2023-04-09T00:47:15.786Z,7.800000191
2023-04-09T00:48:17.273Z,7.800000191
2023-04-09T00:49:17.775Z,7.199999809
2023-04-09T00:50:18.301Z,7
2023-04-09T00:51:18.769Z,7.5
2023-04-09T00:52:19.240Z,8
2023-04-09T00:53:19.728Z,7.400000095
2023-04-09T00:54:20.236Z,7.400000095
2023-04-09T00:55:20.721Z,7.699999809
2023-04-09T00:56:21.387Z,8.699999809
2023-04-09T00:57:21.911Z,8.300000191
2023-04-09T00:58:23.215Z,8.300000191
2023-04-09T00:59:23.767Z,8.199999809
2023-04-09T01:00:24.298Z,7.699999809
2023-04-09T01:01:24.885Z,8.600000381
2023-04-09T01:02:25.430Z,8.899999619
2023-04-09T01:03:25.926Z,8
2023-04-09T01:04:26.311Z,9.300000191
2023-04-09T01:05:26.854Z,8.100000381
2023-04-09T01:06:27.452Z,8.399999619
2023-04-09T01:07:27.993Z,9.199999809
2023-04-09T01:08:29.240Z,8.5
2023-04-09T01:09:29.760Z,8.300000191
2023-04-09T01:10:30.331Z,8.699999809
2023-04-09T01:11:30.884Z,8
2023-04-09T01:12:31.428Z,8.600000381
2023-04-09T01:13:31.907Z,8.399999619
2023-04-09T01:14:32.518Z,9.5
2023-04-09T01:15:33.064Z,9.399999619
2023-04-09T01:16:33.747Z,9.600000381
2023-04-09T01:17:34.140Z,8.899999619
2023-04-09T01:18:35.215Z,9.5
2023-04-09T01:19:35.735Z,9.899999619
2023-04-09T01:20:36.237Z,9.800000191
2023-04-09T01:21:36.761Z,9.800000191
2023-04-09T01:22:37.219Z,8.899999619
2023-04-09T01:23:37.778Z,9.399999619
2023-04-09T01:24:38.238Z,10.10000038
2023-04-09T01:25:38.677Z,10
2023-04-09T01:27:09.723Z,9.800000191
2023-04-09T01:28:10.329Z,9.699999809
2023-04-09T01:29:10.851Z,10
2023-04-09T01:30:11.341Z,10
2023-04-09T01:31:11.973Z,10
2023-04-09T01:32:12.384Z,9.600000381
2023-04-09T01:33:12.938Z,10
2023-04-09T01:34:13.489Z,9.699999809
2023-04-09T01:35:14.002Z,9.399999619
2023-04-09T01:36:14.532Z,9.5
2023-04-09T01:37:14.958Z,9.600000381
2023-04-09T01:38:15.512Z,9.5
2023-04-09T01:39:16.006Z,9.5
2023-04-09T01:40:16.499Z,8.899999619
2023-04-09T01:41:16.980Z,10
2023-04-09T01:42:17.551Z,9.899999619
2023-04-09T01:43:17.886Z,10
2023-04-09T01:44:18.444Z,9.699999809
2023-04-09T01:45:18.928Z,10.19999981
2023-04-09T01:46:19.433Z,10.30000019
2023-04-09T01:47:19.877Z,10
2023-04-09T01:48:20.333Z,10.39999962
2023-04-09T01:49:20.777Z,10.60000038
2023-04-09T01:50:21.324Z,9.699999809
2023-04-09T01:51:21.844Z,10.30000019
2023-04-09T01:52:22.373Z,10.19999981
2023-04-09T01:53:22.876Z,10.60000038
2023-04-09T01:54:23.352Z,10.60000038
2023-04-09T01:55:23.895Z,10.60000038
2023-04-09T01:56:24.502Z,10.10000038
2023-04-09T01:57:25.028Z,9.899999619
2023-04-09T01:58:25.492Z,11
2023-04-09T01:59:25.916Z,10.10000038
2023-04-09T02:00:26.401Z,10.60000038
2023-04-09T02:01:27.003Z,10.69999981
2023-04-09T02:02:27.530Z,10.5
2023-04-09T02:03:27.967Z,11.30000019
2023-04-09T02:04:28.387Z,10.80000019
2023-04-09T02:05:28.876Z,10.69999981
2023-04-09T02:06:29.396Z,10.39999962
2023-04-09T02:07:29.942Z,11.39999962
2023-04-09T02:08:30.433Z,10.30000019
2023-04-09T02:09:30.901Z,10.60000038
2023-04-09T02:10:31.387Z,10.80000019
2023-04-09T02:11:31.856Z,11.10000038
2023-04-09T02:12:32.539Z,11.89999962
2023-04-09T02:13:32.977Z,10.5
2023-04-09T02:14:33.497Z,11.10000038
2023-04-09T02:15:33.934Z,11.10000038
2023-04-09T02:16:34.443Z,11.5
2023-04-09T02:17:34.930Z,10.5
2023-04-09T02:18:35.416Z,11.39999962
2023-04-09T02:19:35.851Z,10.39999962
2023-04-09T02:20:36.358Z,11.69999981
2023-04-09T02:21:36.806Z,11.19999981
2023-04-09T02:22:37.289Z,10.69999981
2023-04-09T02:23:37.727Z,10.60000038
2023-04-09T02:25:08.830Z,10.5
2023-04-09T02:26:09.341Z,10.80000019
2023-04-09T02:27:09.774Z,11.89999962
2023-04-09T02:28:10.283Z,10.69999981
2023-04-09T02:29:10.863Z,11.30000019
2023-04-09T02:30:11.358Z,11.39999962
2023-04-09T02:31:11.893Z,11.30000019
2023-04-09T02:32:12.311Z,10.80000019
2023-04-09T02:33:12.889Z,11.10000038
2023-04-09T02:34:13.304Z,11.5
2023-04-09T02:35:13.777Z,11.10000038
2023-04-09T02:36:14.310Z,10.89999962
2023-04-09T02:37:14.785Z,11.10000038
2023-04-09T02:38:15.350Z,11
2023-04-09T02:39:15.841Z,11.10000038
2023-04-09T02:40:16.310Z,10.89999962
2023-04-09T02:41:16.796Z,11.5
2023-04-09T02:42:17.255Z,10.19999981
2023-04-09T02:43:17.798Z,12.19999981
2023-04-09T02:44:18.188Z,10.89999962
2023-04-09T02:45:18.680Z,10.89999962
2023-04-09T02:46:19.285Z,11.19999981
2023-04-09T02:47:19.813Z,10.30000019
2023-04-09T02:48:20.305Z,12.69999981
2023-04-09T02:49:20.750Z,10.80000019
2023-04-09T02:50:21.263Z,11.69999981
2023-04-09T02:51:21.679Z,10.60000038
2023-04-09T02:52:22.145Z,10.80000019
2023-04-09T02:53:22.691Z,10.80000019
2023-04-09T02:54:23.095Z,12.5
2023-04-09T02:55:23.732Z,11.19999981
2023-04-09T02:56:24.256Z,11.30000019
2023-04-09T02:57:24.672Z,10.80000019
2023-04-09T02:58:25.233Z,11.69999981
2023-04-09T02:59:25.633Z,11.60000038
2023-04-09T03:00:26.130Z,10.69999981
2023-04-09T03:01:26.641Z,10.19999981
2023-04-09T03:02:27.362Z,9.899999619
2023-04-09T03:03:27.660Z,11
2023-04-09T03:04:28.068Z,11.10000038
2023-04-09T03:05:28.572Z,10.30000019
2023-04-09T03:06:29.025Z,11
2023-04-09T03:07:29.514Z,11
2023-04-09T03:08:30.048Z,10.80000019
2023-04-09T03:09:30.511Z,10.69999981
2023-04-09T03:10:30.948Z,10.5
2023-04-09T03:11:31.429Z,10.80000019
2023-04-09T03:12:31.863Z,11.39999962
2023-04-09T03:13:32.573Z,10.30000019
2023-04-09T03:14:34.797Z,11.30000019
2023-04-09T03:15:33.429Z,10.89999962
2023-04-09T03:16:33.862Z,11
2023-04-09T03:17:34.357Z,10.60000038
2023-04-09T03:18:35.138Z,10.69999981
2023-04-09T03:19:35.495Z,10.5
2023-04-09T03:20:35.938Z,11.89999962
2023-04-09T03:21:36.388Z,11.10000038
2023-04-09T03:22:36.832Z,10.89999962
2023-04-09T03:23:37.740Z,11.19999981
2023-04-09T03:25:08.348Z,12.10000038
2023-04-09T03:26:08.836Z,11.39999962
2023-04-09T03:27:09.307Z,10.80000019
2023-04-09T03:28:09.789Z,11.80000019
2023-04-09T03:29:10.275Z,11
2023-04-09T03:30:10.686Z,10.80000019
2023-04-09T03:31:11.200Z,11.80000019
2023-04-09T03:32:12.068Z,11.19999981
2023-04-09T03:33:12.494Z,10.80000019
2023-04-09T03:34:12.932Z,10.19999981
2023-04-09T03:35:13.376Z,11.19999981
2023-04-09T03:36:13.869Z,11.5
2023-04-09T03:37:14.271Z,10.69999981
2023-04-09T03:38:14.707Z,11.80000019
2023-04-09T03:39:15.215Z,12.10000038
2023-04-09T03:40:15.669Z,11.10000038
2023-04-09T03:41:16.127Z,11.80000019
2023-04-09T03:42:16.563Z,11
2023-04-09T03:43:17.035Z,11.30000019
2023-04-09T03:44:17.532Z,11.5
2023-04-09T03:45:18.218Z,11.80000019
2023-04-09T03:46:18.741Z,11.60000038
2023-04-09T03:47:19.185Z,12.19999981
2023-04-09T03:48:19.613Z,11
2023-04-09T03:49:20.120Z,11.69999981
2023-04-09T03:50:21.260Z,11.5
2023-04-09T03:51:21.756Z,11.10000038
2023-04-09T03:52:22.207Z,11.39999962
2023-04-09T03:53:22.644Z,12
2023-04-09T03:54:23.121Z,11.30000019
2023-04-09T03:55:23.551Z,11.30000019
2023-04-09T03:56:24.007Z,11.10000038
2023-04-09T03:57:24.472Z,11.19999981
2023-04-09T03:58:24.941Z,11.30000019
2023-04-09T03:59:25.423Z,10.80000019
2023-04-09T04:00:25.821Z,10.89999962
2023-04-09T04:01:26.284Z,11.69999981
2023-04-09T04:02:26.924Z,11.39999962
2023-04-09T04:03:27.361Z,12
2023-04-09T04:04:27.831Z,10.80000019
2023-04-09T04:05:28.083Z,10.89999962
2023-04-09T04:06:28.544Z,11.19999981
2023-04-09T04:07:29.026Z,10.80000019
2023-04-09T04:08:29.495Z,11.89999962
2023-04-09T04:09:29.987Z,12
2023-04-09T04:10:30.366Z,11.69999981
2023-04-09T04:11:30.823Z,12.19999981
2023-04-09T04:12:31.286Z,11.89999962
2023-04-09T04:13:31.773Z,11.19999981
2023-04-09T04:14:32.611Z,10.60000038
2023-04-09T04:15:33.068Z,11.5
2023-04-09T04:16:33.565Z,11.89999962
2023-04-09T04:17:34.014Z,11.10000038
2023-04-09T04:18:34.450Z,12
2023-04-09T04:19:34.977Z,11.39999962
2023-04-09T04:20:35.366Z,11.30000019
2023-04-09T04:21:35.861Z,11.30000019
2023-04-09T04:22:36.332Z,11.5
2023-04-09T04:24:07.336Z,11.60000038
2023-04-09T04:25:07.869Z,12.69999981
2023-04-09T04:26:08.592Z,12.10000038
2023-04-09T04:27:09.178Z,12.39999962
2023-04-09T04:28:09.668Z,11
2023-04-09T04:29:10.123Z,11.69999981
2023-04-09T04:30:11.241Z,11.5
2023-04-09T04:31:11.727Z,11.60000038
2023-04-09T04:32:12.169Z,11.89999962
2023-04-09T04:33:12.617Z,11.89999962
2023-04-09T04:34:13.136Z,11.39999962
2023-04-09T04:35:13.622Z,12.69999981
2023-04-09T04:36:14.060Z,11.80000019
2023-04-09T04:37:14.527Z,12
2023-04-09T04:38:15.023Z,11.39999962
2023-04-09T04:39:15.551Z,11.69999981
2023-04-09T04:40:16.059Z,11.5
2023-04-09T04:41:16.519Z,11.39999962
2023-04-09T04:42:17.052Z,11.80000019
2023-04-09T04:43:17.513Z,11.60000038
2023-04-09T04:44:17.956Z,12.30000019
2023-04-09T04:45:18.610Z,12.80000019
2023-04-09T04:46:19.136Z,11.69999981
2023-04-09T04:47:19.634Z,12.89999962
2023-04-09T04:48:20.112Z,12
2023-04-09T04:49:20.586Z,13.10000038
2023-04-09T04:50:21.105Z,12.5
2023-04-09T04:51:21.537Z,12.69999981
2023-04-09T04:52:22.028Z,12.69999981
2023-04-09T04:53:22.526Z,12.80000019
2023-04-09T04:54:22.974Z,12.69999981
2023-04-09T04:55:23.461Z,14.39999962
2023-04-09T04:56:23.922Z,12.5
2023-04-09T04:57:24.371Z,13
2023-04-09T04:58:24.834Z,12.80000019
2023-04-09T04:59:25.379Z,13.80000019
2023-04-09T05:00:25.949Z,13.19999981
2023-04-09T05:01:26.315Z,12.80000019
2023-04-09T05:02:26.876Z,13.5
2023-04-09T05:03:27.763Z,13.5
2023-04-09T05:04:27.829Z,13.89999962
2023-04-09T05:05:28.398Z,13
2023-04-09T05:06:28.754Z,13.5
2023-04-09T05:07:29.282Z,13.19999981
2023-04-09T05:08:29.753Z,14
2023-04-09T05:09:30.272Z,14.19999981
2023-04-09T05:10:30.772Z,13.89999962
2023-04-09T05:11:31.306Z,13.60000038
2023-04-09T05:12:31.867Z,12.5
2023-04-09T05:13:32.677Z,12.89999962
2023-04-09T05:14:33.203Z,13.5
2023-04-09T05:15:33.747Z,13
2023-04-09T05:16:34.230Z,13.39999962
2023-04-09T05:17:34.996Z,13.5
2023-04-09T05:18:35.584Z,13.19999981
2023-04-09T05:20:06.633Z,13.89999962
2023-04-09T05:21:07.102Z,13.5
2023-04-09T05:22:07.672Z,14.30000019
2023-04-09T05:23:08.258Z,13.30000019
2023-04-09T05:24:08.773Z,12.69999981
2023-04-09T05:25:09.357Z,14
2023-04-09T05:26:09.841Z,13.89999962
2023-04-09T05:27:10.310Z,14
2023-04-09T05:28:10.966Z,12.80000019
2023-04-09T05:29:11.487Z,13.10000038
2023-04-09T05:30:12.019Z,13.5
2023-04-09T05:31:12.564Z,14
2023-04-09T05:32:12.946Z,13.69999981
2023-04-09T05:33:13.462Z,13.5
2023-04-09T05:34:14.036Z,14
2023-04-09T05:35:14.741Z,13.5
2023-04-09T05:36:15.272Z,13.39999962
2023-04-09T05:37:15.753Z,12.69999981
2023-04-09T05:38:16.368Z,12.19999981
2023-04-09T05:39:17.001Z,11.89999962
2023-04-09T05:40:17.529Z,13.10000038
2023-04-09T05:41:18.041Z,12.69999981
2023-04-09T05:42:18.500Z,12.89999962
2023-04-09T05:43:18.979Z,13.60000038
2023-04-09T05:44:19.533Z,12.69999981
2023-04-09T05:45:20.090Z,12.89999962
2023-04-09T05:46:20.708Z,12.89999962
2023-04-09T05:47:21.125Z,12.80000019
2023-04-09T05:48:21.581Z,13
2023-04-09T05:49:22.130Z,12.5
2023-04-09T05:50:22.693Z,12.39999962
2023-04-09T05:51:23.290Z,13.10000038
2023-04-09T05:52:23.739Z,13.60000038
2023-04-09T05:53:24.204Z,12.5
2023-04-09T05:54:24.752Z,12.80000019
2023-04-09T05:55:25.277Z,13.30000019
2023-04-09T05:56:25.889Z,11.39999962
2023-04-09T05:57:26.365Z,13
2023-04-09T05:58:26.902Z,12.89999962
2023-04-09T05:59:27.375Z,13.39999962
2023-04-09T06:00:28.063Z,12.89999962
2023-04-09T06:01:28.610Z,13.10000038
2023-04-09T06:02:29.192Z,12.19999981
2023-04-09T06:03:29.768Z,12.30000019
2023-04-09T06:04:30.150Z,13.19999981
2023-04-09T06:05:30.648Z,12.69999981
2023-04-09T06:06:31.405Z,13
2023-04-09T06:07:31.909Z,12.60000038
2023-04-09T06:08:32.607Z,13.60000038
2023-04-09T06:09:33.071Z,12.89999962
2023-04-09T06:10:33.517Z,12.5
2023-04-09T06:11:34.142Z,12.10000038
2023-04-09T06:12:34.651Z,12.69999981
2023-04-09T06:13:35.602Z,12.69999981
2023-04-09T06:15:06.365Z,14.10000038
2023-04-09T06:16:06.967Z,12.89999962
2023-04-09T06:17:07.468Z,12.39999962
2023-04-09T06:18:08.041Z,12.5
2023-04-09T06:19:08.476Z,12.60000038
2023-04-09T06:20:08.977Z,12.80000019
2023-04-09T06:21:09.400Z,11.80000019
2023-04-09T06:22:10.109Z,13.10000038
2023-04-09T06:23:10.536Z,12.60000038
2023-04-09T06:24:11.050Z,12.69999981
2023-04-09T06:25:11.704Z,12.80000019
2023-04-09T06:26:12.222Z,13.39999962
2023-04-09T06:27:12.810Z,13.10000038
2023-04-09T06:28:13.289Z,12.69999981
2023-04-09T06:29:13.890Z,12.60000038
2023-04-09T06:30:14.375Z,13.39999962
2023-04-09T06:31:14.961Z,13.10000038
2023-04-09T06:32:15.425Z,13
2023-04-09T06:33:16.036Z,12.80000019
2023-04-09T06:34:16.581Z,13.10000038
2023-04-09T06:35:17.107Z,13.5
2023-04-09T06:36:17.573Z,12.80000019
2023-04-09T06:37:18.179Z,13.30000019
2023-04-09T06:38:18.581Z,13.19999981
2023-04-09T06:39:19.092Z,12.5
2023-04-09T06:40:22.157Z,13
2023-04-09T06:41:20.106Z,13.69999981
2023-04-09T06:42:20.617Z,14.19999981
2023-04-09T06:43:21.093Z,12.10000038
2023-04-09T06:44:21.675Z,14.19999981
2023-04-09T06:45:22.260Z,13.80000019
2023-04-09T06:46:22.792Z,13.80000019
2023-04-09T06:47:23.226Z,13.80000019
2023-04-09T06:48:23.701Z,13.39999962
2023-04-09T06:49:24.272Z,14.5
2023-04-09T06:50:24.747Z,13.69999981
2023-04-09T06:51:25.296Z,13.10000038
2023-04-09T06:52:25.813Z,14.60000038
2023-04-09T06:53:26.345Z,13
2023-04-09T06:54:26.874Z,12.89999962
2023-04-09T06:55:27.434Z,14.10000038
2023-04-09T06:56:28.002Z,13
2023-04-09T06:57:28.545Z,14
2023-04-09T06:58:29.066Z,12.89999962
2023-04-09T06:59:29.554Z,13.80000019
2023-04-09T07:00:30.164Z,13.5
2023-04-09T07:01:30.704Z,13.5
2023-04-09T07:02:31.501Z,13.39999962
2023-04-09T07:03:32.128Z,13.60000038
2023-04-09T07:04:32.686Z,13.80000019
2023-04-09T07:05:33.172Z,13.5
2023-04-09T07:06:33.852Z,13.39999962
2023-04-09T07:07:34.567Z,12.69999981
2023-04-09T07:09:05.569Z,13.80000019
2023-04-09T07:10:05.763Z,14.10000038
2023-04-09T07:11:06.266Z,12.69999981
2023-04-09T07:12:06.803Z,13
2023-04-09T07:13:07.326Z,14
2023-04-09T07:14:07.815Z,13.89999962
2023-04-09T07:15:08.262Z,13.5
2023-04-09T07:16:08.808Z,14.10000038
2023-04-09T07:17:09.321Z,13.30000019
2023-04-09T07:18:09.860Z,13.39999962
2023-04-09T07:19:10.345Z,14.19999981
2023-04-09T07:20:10.854Z,14.60000038
2023-04-09T07:21:11.319Z,13.80000019
2023-04-09T07:22:11.971Z,13.60000038
2023-04-09T07:23:12.394Z,14.60000038
2023-04-09T07:24:12.855Z,13.5
2023-04-09T07:25:13.423Z,14.10000038
2023-04-09T07:26:13.914Z,14
2023-04-09T07:27:14.396Z,13.69999981
2023-04-09T07:28:15.067Z,12.80000019
2023-04-09T07:29:15.480Z,13.69999981
2023-04-09T07:30:15.937Z,14
2023-04-09T07:31:16.582Z,13.89999962
2023-04-09T07:32:17.101Z,14
2023-04-09T07:33:17.710Z,15.30000019
2023-04-09T07:34:18.200Z,13.30000019
2023-04-09T07:35:18.751Z,13.5
2023-04-09T07:36:19.221Z,13.30000019
2023-04-09T07:37:19.788Z,13.39999962
2023-04-09T07:38:20.745Z,14.39999962
2023-04-09T07:39:20.825Z,14.19999981
2023-04-09T07:40:21.349Z,14.10000038
2023-04-09T07:41:21.816Z,13.19999981
2023-04-09T07:42:22.312Z,13.69999981
2023-04-09T07:43:22.891Z,14.10000038
2023-04-09T07:44:23.373Z,14
2023-04-09T07:45:23.887Z,14.30000019
2023-04-09T07:46:24.491Z,14.30000019
2023-04-09T07:47:24.846Z,14.60000038
2023-04-09T07:48:25.290Z,13.30000019
2023-04-09T07:49:25.836Z,14
2023-04-09T07:50:26.427Z,13.69999981
2023-04-09T07:51:26.915Z,14.69999981
2023-04-09T07:52:27.402Z,14.30000019
2023-04-09T07:53:27.852Z,13
2023-04-09T07:54:28.399Z,13.89999962
2023-04-09T07:55:28.922Z,13.19999981
2023-04-09T07:56:29.449Z,13.30000019
2023-04-09T07:57:30.123Z,14
2023-04-09T07:58:30.668Z,13.39999962
2023-04-09T07:59:31.209Z,12
2023-04-09T08:00:31.767Z,13.30000019
2023-04-09T08:01:32.738Z,13.39999962
2023-04-09T08:02:33.364Z,13.10000038
2023-04-09T08:03:34.275Z,13.5
2023-04-09T08:05:05.001Z,13.60000038
2023-04-09T08:06:05.489Z,12.89999962
2023-04-09T08:07:06.125Z,14
2023-04-09T08:08:06.597Z,13.89999962
2023-04-09T08:09:07.055Z,14.19999981
2023-04-09T08:10:07.637Z,13
2023-04-09T08:11:08.187Z,13.5
2023-04-09T08:12:08.812Z,13.10000038
2023-04-09T08:13:10.815Z,13.30000019
2023-04-09T08:14:09.897Z,13.39999962
2023-04-09T08:15:10.406Z,13.5
2023-04-09T08:16:11.052Z,13.19999981
2023-04-09T08:17:11.532Z,13.19999981
2023-04-09T08:18:12.104Z,14.10000038
2023-04-09T08:19:12.609Z,12.69999981
2023-04-09T08:20:13.048Z,12.69999981
2023-04-09T08:21:13.601Z,13.60000038
2023-04-09T08:22:14.113Z,14.5
2023-04-09T08:23:14.698Z,13.5
2023-04-09T08:24:15.265Z,13.80000019
2023-04-09T08:25:15.677Z,13.69999981
2023-04-09T08:26:16.220Z,14.19999981
2023-04-09T08:27:16.742Z,13.10000038
2023-04-09T08:28:17.284Z,13.60000038
2023-04-09T08:29:17.880Z,13.80000019
2023-04-09T08:30:18.989Z,13.80000019
2023-04-09T08:31:18.877Z,14.69999981
2023-04-09T08:32:19.461Z,14
2023-04-09T08:33:19.963Z,12.69999981
2023-04-09T08:34:20.525Z,11.80000019
2023-04-09T08:35:20.998Z,13
2023-04-09T08:36:21.607Z,12.60000038
2023-04-09T08:37:22.163Z,12.30000019
2023-04-09T08:38:22.800Z,12.19999981
2023-04-09T08:39:23.432Z,12.89999962
2023-04-09T08:40:23.927Z,13.30000019
2023-04-09T08:41:24.470Z,13
2023-04-09T08:42:25.026Z,13.89999962
2023-04-09T08:43:33.711Z,13.30000019
2023-04-09T08:44:26.168Z,13.19999981
2023-04-09T08:45:26.710Z,13
2023-04-09T08:46:27.324Z,13.19999981
2023-04-09T08:47:27.919Z,12.80000019
2023-04-09T08:48:28.514Z,12.80000019
2023-04-09T08:49:29.195Z,13.89999962
2023-04-09T08:50:29.646Z,12.69999981
2023-04-09T08:51:30.166Z,13.69999981
2023-04-09T08:52:30.751Z,12.60000038
2023-04-09T08:53:31.343Z,13.10000038
2023-04-09T08:54:32.008Z,13.30000019
2023-04-09T08:55:32.746Z,12.5
2023-04-09T08:57:03.972Z,12.69999981
2023-04-09T08:58:04.523Z,13.30000019
2023-04-09T08:59:05.082Z,12.19999981
2023-04-09T09:00:05.635Z,13.10000038
2023-04-09T09:01:06.271Z,12
2023-04-09T09:02:06.834Z,12.69999981
2023-04-09T09:03:07.368Z,12.69999981
2023-04-09T09:04:07.908Z,12.80000019
2023-04-09T09:05:08.454Z,11.89999962
2023-04-09T09:06:08.861Z,12.30000019
2023-04-09T09:07:09.341Z,13.5
2023-04-09T09:08:09.986Z,13.69999981
2023-04-09T09:09:10.610Z,12.39999962
2023-04-09T09:10:11.256Z,12
2023-04-09T09:11:11.668Z,12.60000038
2023-04-09T09:12:12.209Z,12.39999962
2023-04-09T09:13:12.704Z,12
2023-04-09T09:14:13.227Z,12.89999962
2023-04-09T09:15:13.744Z,12
2023-04-09T09:16:14.292Z,13.30000019
2023-04-09T09:17:14.862Z,12.60000038
2023-04-09T09:18:15.504Z,11.80000019
2023-04-09T09:19:16.014Z,12
2023-04-09T09:20:16.555Z,11.39999962
2023-04-09T09:21:17.106Z,11.69999981
2023-04-09T09:22:17.614Z,11.5
2023-04-09T09:23:18.113Z,11.5
2023-04-09T09:24:18.569Z,11.80000019
2023-04-09T09:25:19.223Z,11.30000019
2023-04-09T09:26:19.652Z,11.80000019
2023-04-09T09:27:20.207Z,10.60000038
2023-04-09T09:28:20.681Z,11.19999981
2023-04-09T09:29:21.158Z,11.69999981
2023-04-09T09:30:21.676Z,11.5
2023-04-09T09:31:22.292Z,11.19999981
2023-04-09T09:32:22.732Z,10.69999981
2023-04-09T09:33:23.184Z,11.10000038
2023-04-09T09:34:23.649Z,10.19999981
2023-04-09T09:35:24.245Z,10.5
2023-04-09T09:36:24.709Z,10.39999962
2023-04-09T09:37:25.266Z,10.60000038
2023-04-09T09:38:25.764Z,10.89999962
2023-04-09T09:39:26.241Z,11
2023-04-09T09:40:26.918Z,10.10000038
2023-04-09T09:41:27.373Z,10.80000019
2023-04-09T09:42:27.933Z,10.89999962
2023-04-09T09:43:28.457Z,11.60000038
2023-04-09T09:44:29.000Z,11.60000038
2023-04-09T09:45:29.544Z,11.30000019
2023-04-09T09:46:30.107Z,12.39999962
2023-04-09T09:47:30.759Z,12.5
2023-04-09T09:48:31.253Z,13.60000038
2023-04-09T09:49:31.820Z,14.89999962
2023-04-09T09:50:32.790Z,11.39999962
2023-04-09T09:52:03.606Z,12.39999962
2023-04-09T09:53:04.122Z,12
2023-04-09T09:54:04.651Z,11.5
2023-04-09T09:55:05.149Z,11.10000038
2023-04-09T09:56:05.701Z,11.19999981
2023-04-09T09:57:06.292Z,11.10000038
2023-04-09T09:58:06.845Z,10.80000019
2023-04-09T09:59:07.379Z,11.60000038
2023-04-09T10:00:07.908Z,11.80000019
2023-04-09T10:01:08.500Z,12.39999962
2023-04-09T10:02:09.057Z,12.10000038
2023-04-09T10:03:09.577Z,11.30000019
2023-04-09T10:04:10.065Z,11.69999981
2023-04-09T10:05:10.503Z,10.69999981
2023-04-09T10:06:11.069Z,12.5
2023-04-09T10:07:11.554Z,12.39999962
2023-04-09T10:08:12.159Z,12.60000038
2023-04-09T10:09:12.696Z,11.80000019
2023-04-09T10:10:13.214Z,12.80000019
2023-04-09T10:11:13.682Z,11.60000038
2023-04-09T10:12:14.134Z,10.80000019
2023-04-09T10:13:14.703Z,10.60000038
2023-04-09T10:14:15.896Z,10.5
2023-04-09T10:15:16.388Z,10
2023-04-09T10:16:16.943Z,11.69999981
2023-04-09T10:17:17.478Z,11.39999962
2023-04-09T10:18:17.914Z,12.60000038
2023-04-09T10:19:18.439Z,10.19999981
2023-04-09T10:20:18.987Z,11.80000019
2023-04-09T10:21:19.608Z,13
2023-04-09T10:22:20.101Z,11.69999981
2023-04-09T10:23:20.504Z,10.80000019
2023-04-09T10:24:21.075Z,11.69999981
2023-04-09T10:25:21.600Z,11.10000038
2023-04-09T10:26:22.223Z,10.69999981
2023-04-09T10:27:22.736Z,9.899999619
2023-04-09T10:28:23.212Z,10.69999981
2023-04-09T10:29:23.832Z,10.69999981
2023-04-09T10:30:24.356Z,11
2023-04-09T10:31:24.973Z,10.69999981
2023-04-09T10:32:25.455Z,11
2023-04-09T10:33:25.929Z,13.30000019
2023-04-09T10:34:26.538Z,11.10000038
2023-04-09T10:35:27.337Z,9.699999809
2023-04-09T10:36:28.062Z,9.800000191
2023-04-09T10:37:28.685Z,9.399999619
2023-04-09T10:38:29.069Z,9.100000381
2023-04-09T10:39:29.597Z,9.5
2023-04-09T10:40:30.130Z,9.300000191
2023-04-09T10:41:30.728Z,9.399999619
2023-04-09T10:42:31.244Z,8.699999809
2023-04-09T10:43:32.368Z,9.5
2023-04-09T10:45:03.522Z,9
2023-04-09T10:46:04.157Z,9.5
2023-04-09T10:47:04.638Z,9.300000191
2023-04-09T10:48:05.150Z,9
2023-04-09T10:49:05.538Z,9.100000381
2023-04-09T10:50:06.068Z,9.699999809
2023-04-09T10:51:06.625Z,9.199999809
2023-04-09T10:52:09.563Z,9.800000191
2023-04-09T10:53:07.696Z,8.699999809
2023-04-09T10:54:08.167Z,8.300000191
2023-04-09T10:55:08.748Z,9.600000381
2023-04-09T10:56:09.328Z,9.699999809
2023-04-09T10:57:09.870Z,9.5
2023-04-09T10:58:12.625Z,9.5
2023-04-09T10:59:10.782Z,9.399999619
2023-04-09T11:00:11.312Z,9.100000381
2023-04-09T11:01:11.898Z,9.100000381
2023-04-09T11:02:12.535Z,8.600000381
2023-04-09T11:03:12.963Z,9.100000381
2023-04-09T11:04:13.442Z,9.100000381
2023-04-09T11:05:13.968Z,8.600000381
2023-04-09T11:06:14.493Z,8.100000381
2023-04-09T11:07:15.019Z,8.699999809
2023-04-09T11:08:15.569Z,9.699999809
2023-04-09T11:09:16.105Z,8.600000381
2023-04-09T11:10:16.636Z,9.399999619
2023-04-09T11:11:17.305Z,9.300000191
2023-04-09T11:12:17.991Z,8.899999619
2023-04-09T11:13:18.423Z,9.600000381
2023-04-09T11:14:18.894Z,8.300000191
2023-04-09T11:15:19.376Z,9.199999809
2023-04-09T11:16:24.342Z,8.800000191
2023-04-09T11:17:20.652Z,9.100000381
2023-04-09T11:18:21.203Z,9.300000191
2023-04-09T11:19:21.656Z,8.800000191
2023-04-09T11:20:22.148Z,8.899999619
2023-04-09T11:21:22.707Z,8.5
2023-04-09T11:22:23.310Z,9.100000381
2023-04-09T11:23:23.880Z,8.800000191
2023-04-09T11:24:24.433Z,8.600000381
2023-04-09T11:25:24.958Z,9.5
2023-04-09T11:26:25.497Z,8.399999619
2023-04-09T11:27:26.050Z,9
2023-04-09T11:28:26.577Z,8.600000381
2023-04-09T11:29:27.166Z,8.5
2023-04-09T11:30:27.686Z,8.300000191
2023-04-09T11:31:28.314Z,7.800000191
2023-04-09T11:32:28.980Z,7.5
2023-04-09T11:33:29.451Z,8.800000191
2023-04-09T11:34:30.013Z,8.300000191